Nearby METAR Reports

 

KCLM - Port Angeles, Washington, USA
Distance from station: W 17mi, 27km
Updated: Wed, 18-Oct-2017 7:53pm PDT
Rain, Mist, Overcast
Rain, Mist, Overcast
 Wind from calm
Wind: Calm
Temperature: 52°F , 11°C
Dew Point: 52°F , 11°C
Humidity: 100%
Barometer: 29.57 inHg , 1001.4 hPa
Summary: Rain, Mist
Clouds: Overcast
Visibility: 3 miles , 5 km
Cloud details: Mostly cloudy 4800 ft
Overcast 6000 ft
2017/10/19 02:53 KCLM 190253Z AUTO 00000KT 3SM RA BR BKN048 OVC060 11/11 A2957 RMK AO2 SLP015 P0027 60076 T01110111 53016
CWQK - Race Rocks Autob, British Columbia, Canada
Distance from station: NW 23mi, 36km
Updated: Wed, 18-Oct-2017 8:00pm PDT

 Wind from WSW
Wind: WSW 17 mph , 28 km/h
Temperature: 54°F , 12°C
Dew Point: 52°F , 11°C
Humidity: 94%
2017/10/19 03:00 CWQK 190300Z AUTO 24015KT 12/11 RMK AO1 PK WND 27028/0203 SLP003 T01180114 51016
 
KNUW - Whidbey Is. Nas, Washington, USA
Distance from station: NE 28mi, 45km
Updated: Wed, 18-Oct-2017 8:40pm PDT
Light rain, Mist, Overcast
Light rain, Mist, Overcast
 Wind from calm
Wind: Calm
Temperature: 55°F , 13°C
Dew Point: 50°F , 10°C
Humidity: 82%
Barometer: 29.61 inHg , 1002.7 hPa
Summary: Light rain, Mist
Clouds: Overcast
Visibility: 3 miles , 5 km
Cloud details: Partly cloudy 1300 ft
Mostly cloudy 2500 ft
Overcast 5000 ft
2017/10/19 03:40 KNUW 190340Z 00000KT 3SM -RA BR SCT013 BKN025 OVC050 13/10 A2961 RMK AO2 SFC VIS 6 P0010 T01280100 $
KFHR - Friday Harbor, Washington, USA
Distance from station: N 29mi, 46km
Updated: Wed, 18-Oct-2017 7:53pm PDT
Light rain, Mist, Overcast
Light rain, Mist, Overcast
 Wind from WSW
Wind: WSW 9 mph , 15 km/h, Gust: 22 mph , 35 km/h
Temperature: 54°F , 12°C
Dew Point: 52°F , 11°C
Humidity: 94%
Barometer: 29.57 inHg , 1001.4 hPa
Summary: Light rain, Mist
Clouds: Overcast
Visibility: 5 miles , 8 km
Cloud details: Overcast 6000 ft
2017/10/19 02:53 KFHR 190253Z AUTO 25008G19KT 200V300 5SM -RA BR OVC060 12/11 A2957 RMK AO2 SLP012 P0011 60042 T01170111 53013
 
KBVS - Burlington/Mt V, Washington, USA
Distance from station: NE 41mi, 66km
Updated: Wed, 18-Oct-2017 8:35pm PDT
Mist, Overcast
Mist, Overcast
 Wind from calm
Wind: Calm
Temperature: 54°F , 12°C
Dew Point: 54°F , 12°C
Humidity: 100%
Barometer: 29.59 inHg , 1002 hPa
Summary: Mist
Clouds: Overcast
Visibility: 5 miles , 8 km
Cloud details: Mostly cloudy 1100 ft
Mostly cloudy 1500 ft
Overcast 1900 ft
2017/10/19 03:35 KBVS 190335Z AUTO 00000KT 5SM BR BKN011 BKN015 OVC019 12/12 A2959 RMK A01
KPAE - Everett, Washington, USA
Distance from station: ESE 42mi, 67km
Updated: Wed, 18-Oct-2017 7:53pm PDT
Rain, Mist, Overcast
Rain, Mist, Overcast
 Wind from SSE
Wind: SSE 24 mph , 39 km/h, Gust: 39 mph , 63 km/h
Temperature: 57°F , 14°C
Dew Point: 55°F , 13°C
Humidity: 94%
Barometer: 29.59 inHg , 1002 hPa
Summary: Rain, Mist
Clouds: Overcast
Visibility: 4 miles , 6 km
Cloud details: Mostly cloudy 900 ft
Overcast 1500 ft
2017/10/19 02:53 KPAE 190253Z 16021G34KT 4SM RA BR BKN009 OVC015 14/13 A2959 RMK AO2 PK WND 15034/0250 CIG 006V012 SLP020 P0017 60047 T01390128 56001
 
KORS - Eastsound/Orcas, Washington, USA
Distance from station: NNE 42mi, 68km
Updated: Wed, 18-Oct-2017 8:35pm PDT
Light rain, Overcast
Light rain, Overcast
 Wind from SSE
Wind: SSE 15 mph , 24 km/h, Gust: 23 mph , 37 km/h
Temperature: 54°F , 12°C
Dew Point: 50°F , 10°C
Humidity: 88%
Barometer: 29.50 inHg , 999 hPa
Summary: Light rain
Clouds: Overcast
Visibility: 7 miles , 11 km
Cloud details: Few Clouds 3800 ft
Mostly cloudy 4700 ft
Overcast 6000 ft
2017/10/19 03:35 KORS 190335Z AUTO 16013G20KT 7SM -RA FEW038 BKN047 OVC060 12/10 A2950 RMK AO2
KAWO - Arlington Muni, Washington, USA
Distance from station: E 45mi, 72km
Updated: Wed, 18-Oct-2017 7:56pm PDT
Light rain, Overcast
Light rain, Overcast
 Wind from S
Wind: S 18 mph , 30 km/h
Temperature: 57°F , 14°C
Dew Point: 55°F , 13°C
Humidity: 94%
Barometer: 29.58 inHg , 1001.7 hPa
Summary: Light rain
Clouds: Overcast
Visibility: 10 miles , 16 km
Cloud details: Overcast 1400 ft
2017/10/19 02:56 KAWO 190256Z AUTO 17016KT 10SM -RA OVC014 14/13 A2958 RMK AO2 SLP020 P0008 60020 T01390128 50003
 
KPWT - Bremerton Ntnl, Washington, USA
Distance from station: SSE 46mi, 73km
Updated: Wed, 18-Oct-2017 7:56pm PDT
Light rain, Mist, Overcast
Light rain, Mist, Overcast
 Wind from SSW
Wind: SSW 18 mph , 30 km/h, Gust: 26 mph , 43 km/h
Temperature: 55°F , 13°C
Dew Point: 55°F , 13°C
Humidity: 100%
Barometer: 29.59 inHg , 1002 hPa
Summary: Light rain, Mist
Clouds: Overcast
Visibility: 5 miles , 8 km
Cloud details: Overcast 600 ft
2017/10/19 02:56 KPWT 190256Z AUTO 20016G23KT 5SM -RA BR OVC006 13/13 A2959 RMK AO2 PK WND 21030/0215 SLP038 P0014 60036 T01330128 53001